createdAt,value
2022-12-23T00:02:04.919Z,10.48
2022-12-23T00:06:14.344Z,10.48
2022-12-23T00:10:16.260Z,10.46
2022-12-23T00:14:36.713Z,10.47
2022-12-23T00:18:39.181Z,10.49
2022-12-23T00:22:59.848Z,10.50
2022-12-23T00:27:01.414Z,10.54
2022-12-23T00:31:05.672Z,10.58
2022-12-23T00:35:07.492Z,10.60
2022-12-23T00:39:30.454Z,10.61
2022-12-23T00:43:32.035Z,10.63
2022-12-23T00:47:52.256Z,10.66
2022-12-23T00:51:53.968Z,10.63
2022-12-23T00:55:55.555Z,10.64
2022-12-23T00:59:57.107Z,10.64
2022-12-23T01:04:17.474Z,10.63
2022-12-23T01:08:19.056Z,10.66
2022-12-23T01:12:23.508Z,10.64
2022-12-23T01:16:25.112Z,10.68
2022-12-23T01:20:26.814Z,10.67
2022-12-23T01:24:30.123Z,10.66
2022-12-23T01:28:32.612Z,10.67
2022-12-23T01:32:34.245Z,10.64
2022-12-23T01:36:35.795Z,10.64
2022-12-23T01:40:40.246Z,10.65
2022-12-23T01:44:47.471Z,10.64
2022-12-23T01:48:52.045Z,10.63
2022-12-23T01:53:08.788Z,10.61
2022-12-23T01:57:10.904Z,10.60
2022-12-23T02:01:32.035Z,10.60
2022-12-23T02:05:34.787Z,10.58
2022-12-23T02:09:38.828Z,10.59
2022-12-23T02:14:17.483Z,10.60
2022-12-23T02:18:30.895Z,10.59
2022-12-23T02:22:45.301Z,10.60
2022-12-23T02:27:04.845Z,10.60
2022-12-23T02:31:13.835Z,10.61
2022-12-23T02:35:43.848Z,10.64
2022-12-23T02:39:54.925Z,10.64
2022-12-23T02:43:59.357Z,10.66
2022-12-23T02:48:08.868Z,10.67
2022-12-23T02:52:15.366Z,10.67
2022-12-23T02:56:19.710Z,10.63
2022-12-23T03:00:22.053Z,10.61
2022-12-23T03:04:23.637Z,10.62
2022-12-23T03:08:39.586Z,10.66
2022-12-23T03:12:58.629Z,10.71
2022-12-23T03:17:12.290Z,10.63
2022-12-23T03:21:34.783Z,10.57
2022-12-23T03:25:42.438Z,10.51
2022-12-23T03:29:59.215Z,10.51
2022-12-23T03:34:06.555Z,10.52
2022-12-23T03:38:10.535Z,10.52
2022-12-23T03:42:22.658Z,10.53
2022-12-23T03:46:31.188Z,10.52
2022-12-23T03:50:35.788Z,10.54
2022-12-23T03:54:44.160Z,10.50
2022-12-23T03:58:56.501Z,10.45
2022-12-23T04:03:10.621Z,10.43
2022-12-23T04:07:23.935Z,10.38
2022-12-23T04:11:27.087Z,10.28
2022-12-23T04:15:29.369Z,10.16
2022-12-23T04:19:31.100Z,10.06
2022-12-23T04:23:32.682Z,9.95
2022-12-23T04:27:34.356Z,9.86
2022-12-23T04:31:35.944Z,9.72
2022-12-23T04:35:37.811Z,9.63
2022-12-23T04:39:39.412Z,9.52
2022-12-23T04:43:41.020Z,9.47
2022-12-23T04:47:42.598Z,9.52
2022-12-23T04:51:44.343Z,9.60
2022-12-23T04:55:51.003Z,9.71
2022-12-23T04:59:52.573Z,9.79
2022-12-23T05:03:54.212Z,9.80
2022-12-23T05:08:03.369Z,9.83
2022-12-23T05:12:04.937Z,9.89
2022-12-23T05:16:06.966Z,9.94
2022-12-23T05:20:09.224Z,10.00
2022-12-23T05:24:10.887Z,10.02
2022-12-23T05:28:13.965Z,10.01
2022-12-23T05:32:15.482Z,9.91
2022-12-23T05:36:17.146Z,9.77
2022-12-23T05:40:23.680Z,9.65
2022-12-23T05:44:26.524Z,9.62
2022-12-23T05:48:28.255Z,9.75
2022-12-23T05:52:29.946Z,9.85
2022-12-23T05:56:31.510Z,9.90
2022-12-23T06:00:34.426Z,9.95
2022-12-23T06:04:36.044Z,10.04
2022-12-23T06:08:37.738Z,10.13
2022-12-23T06:12:39.537Z,10.17
2022-12-23T06:16:41.239Z,10.23
2022-12-23T06:20:46.508Z,10.25
2022-12-23T06:24:48.469Z,10.31
2022-12-23T06:28:50.088Z,10.35
2022-12-23T06:32:51.673Z,10.40
2022-12-23T06:36:53.247Z,10.46
2022-12-23T06:40:54.956Z,10.49
2022-12-23T06:44:56.645Z,10.51
2022-12-23T06:48:58.301Z,10.53
2022-12-23T06:52:59.979Z,10.51
2022-12-23T06:57:01.588Z,10.53
2022-12-23T07:01:03.352Z,10.53
2022-12-23T07:05:06.283Z,10.56
2022-12-23T07:09:07.901Z,10.56
2022-12-23T07:13:09.595Z,10.59
2022-12-23T07:17:11.645Z,10.59
2022-12-23T07:21:21.186Z,10.62
2022-12-23T07:25:28.244Z,10.71
2022-12-23T07:29:29.884Z,10.78
2022-12-23T07:33:31.411Z,10.83
2022-12-23T07:37:33.007Z,10.87
2022-12-23T07:41:34.581Z,10.89
2022-12-23T07:45:41.292Z,10.93
2022-12-23T07:49:42.912Z,11.00
2022-12-23T07:53:48.829Z,11.06
2022-12-23T07:57:51.921Z,11.12
2022-12-23T08:01:53.738Z,11.18
2022-12-23T08:06:01.093Z,11.21
2022-12-23T08:10:03.993Z,11.26
2022-12-23T08:14:07.679Z,11.25
2022-12-23T08:18:09.265Z,11.25
2022-12-23T08:22:10.914Z,11.29
2022-12-23T08:26:19.512Z,11.32
2022-12-23T08:30:22.202Z,11.33
2022-12-23T08:34:23.891Z,11.38
2022-12-23T08:38:25.538Z,11.47
2022-12-23T08:42:27.150Z,11.51
2022-12-23T08:46:29.127Z,11.56
2022-12-23T08:50:30.782Z,11.60
2022-12-23T08:54:32.417Z,11.66
2022-12-23T08:58:38.309Z,11.68
2022-12-23T09:02:39.964Z,11.65
2022-12-23T09:06:42.687Z,11.69
2022-12-23T09:10:44.803Z,11.80
2022-12-23T09:14:47.890Z,11.83
2022-12-23T09:18:49.647Z,11.88
2022-12-23T09:22:51.286Z,11.86
2022-12-23T09:26:52.909Z,11.84
2022-12-23T09:30:54.627Z,11.88
2022-12-23T09:34:57.566Z,11.90
2022-12-23T09:38:59.543Z,11.89
2022-12-23T09:43:33.050Z,11.98
2022-12-23T09:47:35.311Z,12.07
2022-12-23T09:51:36.972Z,12.11
2022-12-23T09:56:05.865Z,12.19
2022-12-23T10:00:15.377Z,12.22
2022-12-23T10:04:36.660Z,12.22
2022-12-23T10:08:51.617Z,12.22
2022-12-23T10:12:54.974Z,12.20
2022-12-23T10:17:05.296Z,12.16
2022-12-23T10:21:14.659Z,12.12
2022-12-23T10:25:40.344Z,12.00
2022-12-23T10:29:42.533Z,11.99
2022-12-23T10:33:44.103Z,12.00
2022-12-23T10:37:54.801Z,11.97
2022-12-23T10:42:08.654Z,11.93
2022-12-23T10:46:20.316Z,11.92
2022-12-23T10:50:38.160Z,11.94
2022-12-23T10:54:44.043Z,11.88
2022-12-23T10:58:49.896Z,11.89
2022-12-23T11:03:06.702Z,11.88
2022-12-23T11:07:42.763Z,11.89
2022-12-23T11:11:57.962Z,11.93
2022-12-23T11:16:23.965Z,11.98
2022-12-23T11:20:25.744Z,12.04
2022-12-23T11:24:35.465Z,12.10
2022-12-23T11:28:49.075Z,12.17
2022-12-23T11:32:51.369Z,12.18
2022-12-23T11:37:00.167Z,12.21
2022-12-23T11:41:04.673Z,12.22
2022-12-23T11:45:07.662Z,12.18
2022-12-23T11:49:19.660Z,12.14
2022-12-23T11:53:24.154Z,12.11
2022-12-23T11:57:43.082Z,12.06
2022-12-23T12:01:48.762Z,12.08
2022-12-23T12:05:58.026Z,12.14
2022-12-23T12:10:02.103Z,12.22
2022-12-23T12:14:07.573Z,12.26
2022-12-23T12:18:13.444Z,12.28
2022-12-23T12:22:30.513Z,12.32
2022-12-23T12:26:36.259Z,12.36
2022-12-23T12:30:44.167Z,12.32
2022-12-23T12:35:08.358Z,12.32
2022-12-23T12:39:23.640Z,12.39
2022-12-23T12:43:34.660Z,12.44
2022-12-23T12:47:55.263Z,12.39
2022-12-23T12:52:07.892Z,12.36
2022-12-23T12:56:28.292Z,12.41
2022-12-23T13:00:46.141Z,12.43
2022-12-23T13:05:13.292Z,12.45
2022-12-23T13:09:40.118Z,12.50
2022-12-23T13:14:02.196Z,12.49
2022-12-23T13:18:16.126Z,12.47
2022-12-23T13:22:25.339Z,12.43
2022-12-23T13:26:37.852Z,12.40
2022-12-23T13:30:47.459Z,12.42
2022-12-23T13:35:02.835Z,12.40
2022-12-23T13:39:30.469Z,12.44
2022-12-23T13:43:47.597Z,12.49
2022-12-23T13:48:13.896Z,12.48
2022-12-23T13:52:40.191Z,12.49
2022-12-23T13:56:57.942Z,12.45
2022-12-23T14:01:22.391Z,12.53
2022-12-23T14:05:27.976Z,12.54
2022-12-23T14:09:33.707Z,12.59
2022-12-23T14:13:44.237Z,12.58
2022-12-23T14:18:04.472Z,12.60
2022-12-23T14:22:34.232Z,12.68
2022-12-23T14:27:16.003Z,12.67
2022-12-23T14:31:40.156Z,12.64
2022-12-23T14:35:42.843Z,12.65
2022-12-23T14:39:44.586Z,12.64
2022-12-23T14:43:46.160Z,12.67
2022-12-23T14:47:47.790Z,12.72
2022-12-23T14:51:52.254Z,12.75
2022-12-23T14:56:15.503Z,12.77
2022-12-23T15:00:17.175Z,12.77
2022-12-23T15:04:24.601Z,12.79
2022-12-23T15:08:33.571Z,12.82
2022-12-23T15:12:39.466Z,12.79
2022-12-23T15:16:45.092Z,12.78
2022-12-23T15:21:09.651Z,12.85
2022-12-23T15:25:28.993Z,12.85
2022-12-23T15:29:30.604Z,12.92
2022-12-23T15:34:02.933Z,12.89
2022-12-23T15:38:00.623Z,12.91
2022-12-23T15:42:02.535Z,12.93
2022-12-23T15:46:17.490Z,12.94
2022-12-23T15:50:20.709Z,13.02
2022-12-23T15:54:36.839Z,13.03
2022-12-23T15:58:42.252Z,13.05
2022-12-23T16:03:02.224Z,13.09
2022-12-23T16:07:05.373Z,13.10
2022-12-23T16:11:15.402Z,13.12
2022-12-23T16:15:29.601Z,13.13
2022-12-23T16:19:46.509Z,13.19
2022-12-23T16:23:53.056Z,13.25
2022-12-23T16:27:58.470Z,13.20
2022-12-23T16:32:02.005Z,13.27
2022-12-23T16:36:17.255Z,13.25
2022-12-23T16:40:19.582Z,13.25
2022-12-23T16:44:21.367Z,13.21
2022-12-23T16:48:36.567Z,13.23
2022-12-23T16:52:39.485Z,13.29
2022-12-23T16:56:41.147Z,13.27
2022-12-23T17:00:42.810Z,13.29
2022-12-23T17:04:44.655Z,13.28
2022-12-23T17:08:46.736Z,13.27
2022-12-23T17:12:50.155Z,13.20
2022-12-23T17:16:52.542Z,13.23
2022-12-23T17:20:56.655Z,13.26
2022-12-23T17:24:58.328Z,13.03
2022-12-23T17:29:00.031Z,12.68
2022-12-23T17:33:01.720Z,12.55
2022-12-23T17:37:12.576Z,12.57
2022-12-23T17:41:28.443Z,12.67
2022-12-23T17:45:31.103Z,12.72
2022-12-23T17:49:32.772Z,12.76
2022-12-23T17:53:34.447Z,12.83
2022-12-23T17:57:35.967Z,12.87
2022-12-23T18:01:38.772Z,12.90
2022-12-23T18:05:40.470Z,12.93
2022-12-23T18:09:42.091Z,12.93
2022-12-23T18:13:43.931Z,12.88
2022-12-23T18:17:45.545Z,12.86
2022-12-23T18:21:47.772Z,12.82
2022-12-23T18:25:49.341Z,12.77
2022-12-23T18:29:51.570Z,12.74
2022-12-23T18:33:53.413Z,12.72
2022-12-23T18:37:55.815Z,12.65
2022-12-23T18:41:57.479Z,12.66
2022-12-23T18:45:59.063Z,12.63
2022-12-23T18:50:02.223Z,12.60
2022-12-23T18:54:03.897Z,12.57
2022-12-23T18:58:05.434Z,12.57
2022-12-23T19:02:10.370Z,12.59
2022-12-23T19:06:13.671Z,12.64
2022-12-23T19:10:18.778Z,12.67
2022-12-23T19:14:20.431Z,12.67
2022-12-23T19:18:22.396Z,12.66
2022-12-23T19:22:24.989Z,12.61
2022-12-23T19:26:26.765Z,12.57
2022-12-23T19:30:28.331Z,12.50
2022-12-23T19:34:30.108Z,12.48
2022-12-23T19:38:31.749Z,12.41
2022-12-23T19:42:36.429Z,12.28
2022-12-23T19:46:38.142Z,12.27
2022-12-23T19:50:39.944Z,12.24
2022-12-23T19:54:41.539Z,12.16
2022-12-23T19:58:44.133Z,12.11
2022-12-23T20:02:45.827Z,12.02
2022-12-23T20:06:47.558Z,11.94
2022-12-23T20:10:49.124Z,11.90
2022-12-23T20:14:50.849Z,11.83
2022-12-23T20:18:54.745Z,11.66
2022-12-23T20:22:56.383Z,11.61
2022-12-23T20:26:59.988Z,11.51
2022-12-23T20:31:19.074Z,11.48
2022-12-23T20:35:20.649Z,11.32
2022-12-23T20:39:22.180Z,11.29
2022-12-23T20:43:23.963Z,11.26
2022-12-23T20:47:25.555Z,11.22
2022-12-23T20:51:27.134Z,11.15
2022-12-23T20:55:28.895Z,11.06
2022-12-23T20:59:30.505Z,11.03
2022-12-23T21:03:32.175Z,11.07
2022-12-23T21:07:33.699Z,11.12
2022-12-23T21:11:38.933Z,11.20
2022-12-23T21:15:40.683Z,11.27
2022-12-23T21:19:43.020Z,11.32
2022-12-23T21:23:44.597Z,11.35
2022-12-23T21:27:46.295Z,11.36
2022-12-23T21:31:47.949Z,11.36
2022-12-23T21:35:49.630Z,11.36
2022-12-23T21:39:51.211Z,11.30
2022-12-23T21:43:53.426Z,11.32
2022-12-23T21:47:54.958Z,11.32
2022-12-23T21:51:56.693Z,11.41
2022-12-23T21:56:03.230Z,11.36
2022-12-23T22:00:05.401Z,11.39
2022-12-23T22:04:07.063Z,11.43
2022-12-23T22:08:08.736Z,11.45
2022-12-23T22:12:10.276Z,11.48
2022-12-23T22:16:17.488Z,11.42
2022-12-23T22:20:19.660Z,11.43
2022-12-23T22:24:21.206Z,11.46
2022-12-23T22:28:22.957Z,11.44
2022-12-23T22:32:24.498Z,11.54
2022-12-23T22:36:26.278Z,11.56
2022-12-23T22:40:27.868Z,11.57
2022-12-23T22:44:29.406Z,11.56
2022-12-23T22:48:31.139Z,11.61
2022-12-23T22:52:32.695Z,11.62
2022-12-23T22:56:34.474Z,11.55
2022-12-23T23:00:36.086Z,11.53
2022-12-23T23:04:37.776Z,11.57
2022-12-23T23:08:42.123Z,11.58
2022-12-23T23:12:45.861Z,11.53
2022-12-23T23:16:47.495Z,11.55
2022-12-23T23:20:49.552Z,11.55
2022-12-23T23:24:51.385Z,11.56
2022-12-23T23:28:53.824Z,11.51
2022-12-23T23:32:55.472Z,11.49
2022-12-23T23:36:57.188Z,11.43
2022-12-23T23:40:59.684Z,11.43
2022-12-23T23:45:01.298Z,11.43
2022-12-23T23:49:03.209Z,11.48
2022-12-23T23:53:05.548Z,11.52
2022-12-23T23:57:07.144Z,11.39
